sensor_id;sensor_type;location;lat;lon;timestamp;P1;durP1;ratioP1;P2;durP2;ratioP2
75586;SDS011;64164;50.156;14.570;2022-10-16T06:29:42;4.47;;;2.17;;
75586;SDS011;64164;50.156;14.570;2022-10-16T06:32:08;3.88;;;2.30;;
75586;SDS011;64164;50.156;14.570;2022-10-16T06:34:34;4.53;;;2.28;;
75586;SDS011;64164;50.156;14.570;2022-10-16T06:37:00;4.73;;;2.77;;
75586;SDS011;64164;50.156;14.570;2022-10-16T06:39:25;8.35;;;3.78;;
75586;SDS011;64164;50.156;14.570;2022-10-16T06:41:50;8.32;;;3.50;;
75586;SDS011;64164;50.156;14.570;2022-10-16T06:44:16;4.43;;;2.70;;
75586;SDS011;64164;50.156;14.570;2022-10-16T06:46:41;5.72;;;3.15;;
75586;SDS011;64164;50.156;14.570;2022-10-16T06:49:06;4.13;;;2.37;;
75586;SDS011;64164;50.156;14.570;2022-10-16T06:51:32;3.80;;;2.07;;
75586;SDS011;64164;50.156;14.570;2022-10-16T06:53:59;4.10;;;2.17;;
75586;SDS011;64164;50.156;14.570;2022-10-16T06:56:25;4.87;;;2.27;;
75586;SDS011;64164;50.156;14.570;2022-10-16T06:58:52;4.22;;;2.40;;
75586;SDS011;64164;50.156;14.570;2022-10-16T07:01:19;3.88;;;1.88;;
75586;SDS011;64164;50.156;14.570;2022-10-16T07:03:47;5.18;;;2.28;;
75586;SDS011;64164;50.156;14.570;2022-10-16T07:06:13;6.35;;;2.03;;
75586;SDS011;64164;50.156;14.570;2022-10-16T07:08:41;6.07;;;2.30;;
75586;SDS011;64164;50.156;14.570;2022-10-16T07:11:12;3.90;;;2.10;;
75586;SDS011;64164;50.156;14.570;2022-10-16T07:13:39;4.35;;;2.25;;
75586;SDS011;64164;50.156;14.570;2022-10-16T07:16:13;4.93;;;2.30;;
75586;SDS011;64164;50.156;14.570;2022-10-16T07:18:40;3.78;;;2.10;;
75586;SDS011;64164;50.156;14.570;2022-10-16T07:21:08;3.50;;;2.10;;
75586;SDS011;64164;50.156;14.570;2022-10-16T07:23:36;4.32;;;2.03;;
75586;SDS011;64164;50.156;14.570;2022-10-16T07:26:02;3.50;;;2.00;;
75586;SDS011;64164;50.156;14.570;2022-10-16T07:28:28;4.90;;;2.22;;
75586;SDS011;64164;50.156;14.570;2022-10-16T07:30:54;4.60;;;2.20;;
75586;SDS011;64164;50.156;14.570;2022-10-16T07:33:19;4.47;;;2.00;;
75586;SDS011;64164;50.156;14.570;2022-10-16T07:35:49;4.18;;;2.00;;
75586;SDS011;64164;50.156;14.570;2022-10-16T07:38:15;3.72;;;2.25;;
75586;SDS011;64164;50.156;14.570;2022-10-16T07:40:40;3.47;;;1.93;;
75586;SDS011;64164;50.156;14.570;2022-10-16T07:43:06;3.20;;;1.80;;
75586;SDS011;64164;50.156;14.570;2022-10-16T07:45:31;3.60;;;1.90;;
75586;SDS011;64164;50.156;14.570;2022-10-16T07:47:57;4.07;;;2.13;;
75586;SDS011;64164;50.156;14.570;2022-10-16T07:50:22;4.30;;;1.67;;
75586;SDS011;64164;50.156;14.570;2022-10-16T07:52:47;4.82;;;2.40;;
75586;SDS011;64164;50.156;14.570;2022-10-16T07:55:13;4.73;;;2.27;;
75586;SDS011;64164;50.156;14.570;2022-10-16T07:57:38;4.15;;;2.53;;
75586;SDS011;64164;50.156;14.570;2022-10-16T08:00:04;3.77;;;1.83;;
75586;SDS011;64164;50.156;14.570;2022-10-16T08:02:29;3.85;;;2.17;;
75586;SDS011;64164;50.156;14.570;2022-10-16T08:04:56;5.53;;;2.28;;
75586;SDS011;64164;50.156;14.570;2022-10-16T08:07:21;3.30;;;1.90;;
75586;SDS011;64164;50.156;14.570;2022-10-16T08:09:48;4.07;;;2.13;;
75586;SDS011;64164;50.156;14.570;2022-10-16T08:12:16;3.92;;;2.45;;
75586;SDS011;64164;50.156;14.570;2022-10-16T08:14:42;3.42;;;1.80;;
75586;SDS011;64164;50.156;14.570;2022-10-16T08:17:07;3.70;;;1.87;;
75586;SDS011;64164;50.156;14.570;2022-10-16T08:19:32;3.10;;;1.63;;
75586;SDS011;64164;50.156;14.570;2022-10-16T08:21:59;3.35;;;2.03;;
75586;SDS011;64164;50.156;14.570;2022-10-16T08:24:25;4.80;;;2.22;;
75586;SDS011;64164;50.156;14.570;2022-10-16T08:26:53;3.25;;;1.80;;
75586;SDS011;64164;50.156;14.570;2022-10-16T08:29:18;4.50;;;2.42;;
75586;SDS011;64164;50.156;14.570;2022-10-16T08:31:43;3.90;;;2.07;;
75586;SDS011;64164;50.156;14.570;2022-10-16T08:34:09;4.83;;;2.37;;
75586;SDS011;64164;50.156;14.570;2022-10-16T08:36:34;3.80;;;1.90;;
75586;SDS011;64164;50.156;14.570;2022-10-16T08:38:59;6.05;;;2.30;;
75586;SDS011;64164;50.156;14.570;2022-10-16T08:46:53;3.70;;;1.92;;
75586;SDS011;64164;50.156;14.570;2022-10-16T08:49:29;4.18;;;2.35;;
75586;SDS011;64164;50.156;14.570;2022-10-16T08:51:55;3.97;;;2.00;;
75586;SDS011;64164;50.156;14.570;2022-10-16T08:57:00;3.13;;;1.67;;
75586;SDS011;64164;50.156;14.570;2022-10-16T08:59:33;4.07;;;2.00;;
75586;SDS011;64164;50.156;14.570;2022-10-16T09:01:59;3.30;;;1.83;;
75586;SDS011;64164;50.156;14.570;2022-10-16T09:05:31;2.92;;;1.50;;
75586;SDS011;64164;50.156;14.570;2022-10-16T09:07:42;3.45;;;1.70;;
75586;SDS011;64164;50.156;14.570;2022-10-16T09:10:12;4.35;;;1.65;;
75586;SDS011;64164;50.156;14.570;2022-10-16T09:13:03;3.08;;;1.42;;
75586;SDS011;64164;50.156;14.570;2022-10-16T09:21:36;3.03;;;1.48;;
75586;SDS011;64164;50.156;14.570;2022-10-16T09:24:13;4.63;;;1.73;;
75586;SDS011;64164;50.156;14.570;2022-10-16T09:26:41;3.38;;;1.60;;
75586;SDS011;64164;50.156;14.570;2022-10-16T09:29:08;4.35;;;1.77;;
75586;SDS011;64164;50.156;14.570;2022-10-16T09:31:37;3.35;;;1.60;;
75586;SDS011;64164;50.156;14.570;2022-10-16T09:34:02;3.22;;;1.90;;
75586;SDS011;64164;50.156;14.570;2022-10-16T09:36:31;2.95;;;1.67;;
75586;SDS011;64164;50.156;14.570;2022-10-16T09:39:13;3.55;;;1.85;;
75586;SDS011;64164;50.156;14.570;2022-10-16T09:41:39;3.70;;;1.77;;
75586;SDS011;64164;50.156;14.570;2022-10-16T09:44:23;4.97;;;1.83;;
75586;SDS011;64164;50.156;14.570;2022-10-16T09:47:03;3.78;;;2.00;;
75586;SDS011;64164;50.156;14.570;2022-10-16T09:49:29;3.55;;;1.80;;
75586;SDS011;64164;50.156;14.570;2022-10-16T09:52:05;3.40;;;1.45;;
75586;SDS011;64164;50.156;14.570;2022-10-16T09:54:36;3.38;;;1.70;;
75586;SDS011;64164;50.156;14.570;2022-10-16T09:57:05;3.42;;;1.50;;
75586;SDS011;64164;50.156;14.570;2022-10-16T09:59:32;5.03;;;2.30;;
75586;SDS011;64164;50.156;14.570;2022-10-16T10:02:00;2.95;;;1.60;;
75586;SDS011;64164;50.156;14.570;2022-10-16T10:04:36;3.92;;;1.83;;
75586;SDS011;64164;50.156;14.570;2022-10-16T10:07:04;3.08;;;1.60;;
75586;SDS011;64164;50.156;14.570;2022-10-16T10:09:35;3.80;;;1.40;;
75586;SDS011;64164;50.156;14.570;2022-10-16T10:12:04;2.83;;;1.35;;
75586;SDS011;64164;50.156;14.570;2022-10-16T10:14:37;4.95;;;1.50;;
75586;SDS011;64164;50.156;14.570;2022-10-16T10:17:18;1.75;;;1.00;;
75586;SDS011;64164;50.156;14.570;2022-10-16T10:22:22;3.25;;;1.63;;
75586;SDS011;64164;50.156;14.570;2022-10-16T10:25:14;4.15;;;1.15;;
75586;SDS011;64164;50.156;14.570;2022-10-16T10:27:57;2.13;;;1.20;;
75586;SDS011;64164;50.156;14.570;2022-10-16T10:41:32;3.15;;;1.55;;
75586;SDS011;64164;50.156;14.570;2022-10-16T10:46:41;2.05;;;0.93;;
75586;SDS011;64164;50.156;14.570;2022-10-16T10:54:48;2.83;;;1.20;;
75586;SDS011;64164;50.156;14.570;2022-10-16T11:05:44;2.40;;;1.10;;
75586;SDS011;64164;50.156;14.570;2022-10-16T11:11:09;2.10;;;1.27;;
75586;SDS011;64164;50.156;14.570;2022-10-16T11:19:13;2.65;;;1.10;;
75586;SDS011;64164;50.156;14.570;2022-10-16T11:21:51;2.25;;;1.20;;
75586;SDS011;64164;50.156;14.570;2022-10-16T11:24:36;2.38;;;1.10;;
75586;SDS011;64164;50.156;14.570;2022-10-16T11:27:09;3.03;;;1.30;;
75586;SDS011;64164;50.156;14.570;2022-10-16T11:29:43;2.35;;;1.25;;
75586;SDS011;64164;50.156;14.570;2022-10-16T11:32:19;2.95;;;1.17;;
75586;SDS011;64164;50.156;14.570;2022-10-16T11:34:57;3.08;;;1.35;;
75586;SDS011;64164;50.156;14.570;2022-10-16T11:37:30;3.55;;;1.35;;
75586;SDS011;64164;50.156;14.570;2022-10-16T11:40:11;2.30;;;1.13;;
75586;SDS011;64164;50.156;14.570;2022-10-16T11:43:10;2.22;;;1.20;;
75586;SDS011;64164;50.156;14.570;2022-10-16T11:45:44;2.92;;;1.30;;
75586;SDS011;64164;50.156;14.570;2022-10-16T11:48:25;2.10;;;1.20;;
75586;SDS011;64164;50.156;14.570;2022-10-16T11:51:02;1.77;;;1.10;;
75586;SDS011;64164;50.156;14.570;2022-10-16T11:53:44;2.10;;;1.25;;
75586;SDS011;64164;50.156;14.570;2022-10-16T11:56:16;2.63;;;1.20;;
75586;SDS011;64164;50.156;14.570;2022-10-16T12:01:19;3.10;;;1.30;;
75586;SDS011;64164;50.156;14.570;2022-10-16T12:09:21;2.45;;;1.35;;
75586;SDS011;64164;50.156;14.570;2022-10-16T12:11:50;3.03;;;1.50;;
75586;SDS011;64164;50.156;14.570;2022-10-16T12:14:21;5.28;;;1.65;;
75586;SDS011;64164;50.156;14.570;2022-10-16T12:17:00;4.43;;;1.58;;
75586;SDS011;64164;50.156;14.570;2022-10-16T12:19:30;3.38;;;1.45;;
75586;SDS011;64164;50.156;14.570;2022-10-16T12:21:57;3.28;;;1.45;;
75586;SDS011;64164;50.156;14.570;2022-10-16T12:24:30;3.58;;;1.60;;
75586;SDS011;64164;50.156;14.570;2022-10-16T12:27:00;3.38;;;1.33;;
75586;SDS011;64164;50.156;14.570;2022-10-16T12:29:34;2.88;;;1.42;;
75586;SDS011;64164;50.156;14.570;2022-10-16T12:32:05;2.58;;;1.30;;
75586;SDS011;64164;50.156;14.570;2022-10-16T12:34:47;2.13;;;1.20;;
75586;SDS011;64164;50.156;14.570;2022-10-16T12:39:53;2.65;;;1.40;;
75586;SDS011;64164;50.156;14.570;2022-10-16T12:44:52;2.17;;;1.20;;
75586;SDS011;64164;50.156;14.570;2022-10-16T12:47:35;2.40;;;1.40;;
75586;SDS011;64164;50.156;14.570;2022-10-16T12:50:03;2.55;;;1.42;;
75586;SDS011;64164;50.156;14.570;2022-10-16T12:52:47;1.88;;;1.15;;
75586;SDS011;64164;50.156;14.570;2022-10-16T12:55:16;3.13;;;1.45;;
75586;SDS011;64164;50.156;14.570;2022-10-16T12:57:49;2.33;;;1.20;;
75586;SDS011;64164;50.156;14.570;2022-10-16T13:08:45;3.28;;;1.35;;
75586;SDS011;64164;50.156;14.570;2022-10-16T13:14:17;3.67;;;1.55;;
75586;SDS011;64164;50.156;14.570;2022-10-16T13:19:29;2.90;;;1.23;;
75586;SDS011;64164;50.156;14.570;2022-10-16T13:22:11;3.05;;;1.40;;
75586;SDS011;64164;50.156;14.570;2022-10-16T13:30:16;2.70;;;1.40;;
75586;SDS011;64164;50.156;14.570;2022-10-16T13:32:48;3.70;;;1.50;;
75586;SDS011;64164;50.156;14.570;2022-10-16T13:35:27;2.78;;;1.30;;
75586;SDS011;64164;50.156;14.570;2022-10-16T13:40:49;2.58;;;1.40;;
75586;SDS011;64164;50.156;14.570;2022-10-16T13:43:15;2.70;;;1.55;;
75586;SDS011;64164;50.156;14.570;2022-10-16T13:45:52;3.28;;;1.45;;
75586;SDS011;64164;50.156;14.570;2022-10-16T13:48:18;2.30;;;1.33;;
75586;SDS011;64164;50.156;14.570;2022-10-16T13:50:43;3.07;;;1.77;;
75586;SDS011;64164;50.156;14.570;2022-10-16T13:53:13;2.20;;;1.30;;
75586;SDS011;64164;50.156;14.570;2022-10-16T13:55:39;3.53;;;1.15;;
75586;SDS011;64164;50.156;14.570;2022-10-16T13:58:07;1.90;;;1.35;;
75586;SDS011;64164;50.156;14.570;2022-10-16T14:00:33;2.08;;;1.35;;
75586;SDS011;64164;50.156;14.570;2022-10-16T14:03:21;1.83;;;1.10;;
75586;SDS011;64164;50.156;14.570;2022-10-16T14:05:50;3.72;;;1.40;;
75586;SDS011;64164;50.156;14.570;2022-10-16T14:08:20;2.92;;;1.48;;
75586;SDS011;64164;50.156;14.570;2022-10-16T14:10:49;2.55;;;1.45;;
75586;SDS011;64164;50.156;14.570;2022-10-16T14:13:17;2.22;;;1.30;;
75586;SDS011;64164;50.156;14.570;2022-10-16T14:15:46;3.72;;;1.27;;
75586;SDS011;64164;50.156;14.570;2022-10-16T14:18:18;2.55;;;1.17;;
75586;SDS011;64164;50.156;14.570;2022-10-16T14:20:46;2.70;;;1.42;;
75586;SDS011;64164;50.156;14.570;2022-10-16T14:23:23;4.15;;;1.80;;
75586;SDS011;64164;50.156;14.570;2022-10-16T14:25:53;2.97;;;1.42;;
75586;SDS011;64164;50.156;14.570;2022-10-16T14:28:29;3.47;;;1.50;;
75586;SDS011;64164;50.156;14.570;2022-10-16T14:30:56;2.60;;;1.20;;
75586;SDS011;64164;50.156;14.570;2022-10-16T14:38:36;4.55;;;1.67;;
75586;SDS011;64164;50.156;14.570;2022-10-16T14:41:02;2.78;;;1.50;;
75586;SDS011;64164;50.156;14.570;2022-10-16T14:45:57;3.03;;;1.50;;
75586;SDS011;64164;50.156;14.570;2022-10-16T14:48:22;2.65;;;1.42;;
75586;SDS011;64164;50.156;14.570;2022-10-16T14:50:49;4.57;;;1.33;;
75586;SDS011;64164;50.156;14.570;2022-10-16T14:53:15;4.82;;;1.63;;
75586;SDS011;64164;50.156;14.570;2022-10-16T14:55:41;2.25;;;1.30;;
75586;SDS011;64164;50.156;14.570;2022-10-16T14:58:25;4.22;;;1.45;;
75586;SDS011;64164;50.156;14.570;2022-10-16T15:00:51;2.50;;;1.30;;
75586;SDS011;64164;50.156;14.570;2022-10-16T15:03:16;5.07;;;2.03;;
75586;SDS011;64164;50.156;14.570;2022-10-16T15:05:42;7.47;;;3.13;;
75586;SDS011;64164;50.156;14.570;2022-10-16T15:08:07;7.17;;;3.93;;
75586;SDS011;64164;50.156;14.570;2022-10-16T15:10:33;5.20;;;1.87;;
75586;SDS011;64164;50.156;14.570;2022-10-16T15:13:03;3.72;;;2.13;;
75586;SDS011;64164;50.156;14.570;2022-10-16T15:15:35;4.20;;;1.92;;
75586;SDS011;64164;50.156;14.570;2022-10-16T15:18:03;18.50;;;9.38;;
75586;SDS011;64164;50.156;14.570;2022-10-16T15:20:33;14.15;;;7.20;;
75586;SDS011;64164;50.156;14.570;2022-10-16T15:23:03;6.63;;;3.30;;
75586;SDS011;64164;50.156;14.570;2022-10-16T15:25:36;4.63;;;2.40;;
75586;SDS011;64164;50.156;14.570;2022-10-16T15:28:04;5.15;;;2.90;;
75586;SDS011;64164;50.156;14.570;2022-10-16T15:30:32;5.15;;;2.63;;
75586;SDS011;64164;50.156;14.570;2022-10-16T15:32:57;5.07;;;3.03;;
75586;SDS011;64164;50.156;14.570;2022-10-16T15:35:23;13.80;;;6.47;;
75586;SDS011;64164;50.156;14.570;2022-10-16T15:37:48;14.93;;;7.53;;
75586;SDS011;64164;50.156;14.570;2022-10-16T15:40:15;10.25;;;5.63;;
75586;SDS011;64164;50.156;14.570;2022-10-16T15:42:41;8.23;;;4.70;;
75586;SDS011;64164;50.156;14.570;2022-10-16T15:45:07;6.20;;;3.93;;
75586;SDS011;64164;50.156;14.570;2022-10-16T15:47:34;6.60;;;4.25;;
75586;SDS011;64164;50.156;14.570;2022-10-16T15:49:59;4.82;;;3.15;;
75586;SDS011;64164;50.156;14.570;2022-10-16T15:52:24;6.35;;;4.22;;
75586;SDS011;64164;50.156;14.570;2022-10-16T15:54:50;7.97;;;4.40;;
75586;SDS011;64164;50.156;14.570;2022-10-16T15:57:15;6.82;;;4.03;;
75586;SDS011;64164;50.156;14.570;2022-10-16T15:59:40;6.37;;;3.57;;
75586;SDS011;64164;50.156;14.570;2022-10-16T16:02:07;6.05;;;4.05;;
75586;SDS011;64164;50.156;14.570;2022-10-16T16:04:33;9.80;;;4.03;;
75586;SDS011;64164;50.156;14.570;2022-10-16T16:06:59;6.82;;;4.40;;
75586;SDS011;64164;50.156;14.570;2022-10-16T16:09:26;7.22;;;4.70;;
75586;SDS011;64164;50.156;14.570;2022-10-16T16:11:51;9.50;;;4.47;;
75586;SDS011;64164;50.156;14.570;2022-10-16T16:14:17;12.10;;;6.13;;
75586;SDS011;64164;50.156;14.570;2022-10-16T16:16:42;12.35;;;6.32;;
75586;SDS011;64164;50.156;14.570;2022-10-16T16:19:08;13.30;;;5.95;;
75586;SDS011;64164;50.156;14.570;2022-10-16T16:21:34;14.20;;;7.15;;
75586;SDS011;64164;50.156;14.570;2022-10-16T16:24:00;10.90;;;5.63;;
75586;SDS011;64164;50.156;14.570;2022-10-16T16:26:28;9.95;;;4.82;;
75586;SDS011;64164;50.156;14.570;2022-10-16T16:28:59;13.10;;;6.65;;
75586;SDS011;64164;50.156;14.570;2022-10-16T16:31:25;9.23;;;4.72;;
75586;SDS011;64164;50.156;14.570;2022-10-16T16:33:52;11.05;;;5.90;;
75586;SDS011;64164;50.156;14.570;2022-10-16T16:36:18;9.07;;;4.90;;
75586;SDS011;64164;50.156;14.570;2022-10-16T16:38:44;11.23;;;5.97;;
75586;SDS011;64164;50.156;14.570;2022-10-16T16:41:11;15.27;;;7.72;;
75586;SDS011;64164;50.156;14.570;2022-10-16T16:43:37;9.32;;;4.95;;
75586;SDS011;64164;50.156;14.570;2022-10-16T16:46:03;11.90;;;5.50;;
75586;SDS011;64164;50.156;14.570;2022-10-16T16:48:28;12.48;;;5.47;;
75586;SDS011;64164;50.156;14.570;2022-10-16T16:50:54;24.05;;;10.35;;
75586;SDS011;64164;50.156;14.570;2022-10-16T16:53:19;13.27;;;6.47;;
75586;SDS011;64164;50.156;14.570;2022-10-16T16:55:44;9.27;;;4.70;;
75586;SDS011;64164;50.156;14.570;2022-10-16T16:58:10;9.90;;;5.00;;
75586;SDS011;64164;50.156;14.570;2022-10-16T17:00:35;9.43;;;4.97;;
75586;SDS011;64164;50.156;14.570;2022-10-16T17:03:00;10.23;;;4.83;;
75586;SDS011;64164;50.156;14.570;2022-10-16T17:05:26;7.83;;;4.40;;
75586;SDS011;64164;50.156;14.570;2022-10-16T17:07:51;9.73;;;5.13;;
75586;SDS011;64164;50.156;14.570;2022-10-16T17:10:16;9.27;;;5.40;;
75586;SDS011;64164;50.156;14.570;2022-10-16T17:12:44;10.38;;;5.40;;
75586;SDS011;64164;50.156;14.570;2022-10-16T17:15:10;11.30;;;5.60;;
75586;SDS011;64164;50.156;14.570;2022-10-16T17:17:35;9.68;;;5.68;;
75586;SDS011;64164;50.156;14.570;2022-10-16T17:20:01;7.28;;;5.05;;
75586;SDS011;64164;50.156;14.570;2022-10-16T17:22:26;8.30;;;5.33;;
75586;SDS011;64164;50.156;14.570;2022-10-16T17:24:51;7.93;;;4.67;;
75586;SDS011;64164;50.156;14.570;2022-10-16T17:27:19;7.13;;;4.13;;
75586;SDS011;64164;50.156;14.570;2022-10-16T17:29:45;7.03;;;3.72;;
75586;SDS011;64164;50.156;14.570;2022-10-16T17:32:14;5.80;;;3.33;;
75586;SDS011;64164;50.156;14.570;2022-10-16T17:34:39;7.27;;;4.00;;
75586;SDS011;64164;50.156;14.570;2022-10-16T17:37:04;6.33;;;3.80;;
75586;SDS011;64164;50.156;14.570;2022-10-16T17:39:30;5.57;;;3.60;;
75586;SDS011;64164;50.156;14.570;2022-10-16T17:41:55;5.87;;;3.80;;
75586;SDS011;64164;50.156;14.570;2022-10-16T17:44:20;5.80;;;3.50;;
75586;SDS011;64164;50.156;14.570;2022-10-16T17:46:46;6.60;;;3.80;;
75586;SDS011;64164;50.156;14.570;2022-10-16T17:49:14;5.82;;;3.38;;
75586;SDS011;64164;50.156;14.570;2022-10-16T17:51:40;6.20;;;3.58;;
75586;SDS011;64164;50.156;14.570;2022-10-16T17:54:05;6.10;;;3.72;;
75586;SDS011;64164;50.156;14.570;2022-10-16T17:56:31;5.90;;;3.80;;
75586;SDS011;64164;50.156;14.570;2022-10-16T17:58:58;5.60;;;3.38;;
75586;SDS011;64164;50.156;14.570;2022-10-16T18:01:25;5.68;;;3.65;;
75586;SDS011;64164;50.156;14.570;2022-10-16T18:04:02;6.35;;;3.83;;
75586;SDS011;64164;50.156;14.570;2022-10-16T18:06:31;7.05;;;4.25;;
75586;SDS011;64164;50.156;14.570;2022-10-16T18:08:57;7.90;;;4.85;;
75586;SDS011;64164;50.156;14.570;2022-10-16T18:11:23;12.43;;;6.47;;
75586;SDS011;64164;50.156;14.570;2022-10-16T18:13:53;12.52;;;6.50;;
75586;SDS011;64164;50.156;14.570;2022-10-16T18:16:19;14.13;;;8.10;;
75586;SDS011;64164;50.156;14.570;2022-10-16T18:18:45;13.82;;;7.65;;
75586;SDS011;64164;50.156;14.570;2022-10-16T18:21:12;15.13;;;7.70;;
75586;SDS011;64164;50.156;14.570;2022-10-16T18:23:40;12.05;;;7.78;;
75586;SDS011;64164;50.156;14.570;2022-10-16T18:26:06;15.05;;;7.03;;
75586;SDS011;64164;50.156;14.570;2022-10-16T18:28:32;12.60;;;7.47;;
75586;SDS011;64164;50.156;14.570;2022-10-16T18:30:59;14.98;;;7.30;;
75586;SDS011;64164;50.156;14.570;2022-10-16T18:33:27;17.75;;;7.95;;
75586;SDS011;64164;50.156;14.570;2022-10-16T18:35:54;35.50;;;18.17;;
75586;SDS011;64164;50.156;14.570;2022-10-16T18:38:20;43.47;;;21.55;;
75586;SDS011;64164;50.156;14.570;2022-10-16T18:40:46;25.48;;;13.50;;
75586;SDS011;64164;50.156;14.570;2022-10-16T18:43:12;21.65;;;12.45;;
75586;SDS011;64164;50.156;14.570;2022-10-16T18:45:37;23.80;;;12.83;;
75586;SDS011;64164;50.156;14.570;2022-10-16T18:48:03;19.25;;;10.52;;
75586;SDS011;64164;50.156;14.570;2022-10-16T18:50:28;20.50;;;9.85;;
75586;SDS011;64164;50.156;14.570;2022-10-16T18:52:54;19.23;;;10.25;;
75586;SDS011;64164;50.156;14.570;2022-10-16T18:55:19;49.27;;;24.33;;
75586;SDS011;64164;50.156;14.570;2022-10-16T18:57:45;20.35;;;10.82;;
75586;SDS011;64164;50.156;14.570;2022-10-16T19:00:11;11.65;;;7.00;;
75586;SDS011;64164;50.156;14.570;2022-10-16T19:02:36;13.23;;;6.57;;
75586;SDS011;64164;50.156;14.570;2022-10-16T19:05:02;13.43;;;7.05;;
75586;SDS011;64164;50.156;14.570;2022-10-16T19:07:28;13.30;;;7.20;;
75586;SDS011;64164;50.156;14.570;2022-10-16T19:09:53;13.80;;;7.30;;
75586;SDS011;64164;50.156;14.570;2022-10-16T19:12:18;13.50;;;7.50;;
75586;SDS011;64164;50.156;14.570;2022-10-16T19:14:46;24.95;;;11.32;;
75586;SDS011;64164;50.156;14.570;2022-10-16T19:17:12;22.60;;;10.65;;
75586;SDS011;64164;50.156;14.570;2022-10-16T19:19:37;23.57;;;10.90;;
75586;SDS011;64164;50.156;14.570;2022-10-16T19:22:03;22.63;;;9.98;;
75586;SDS011;64164;50.156;14.570;2022-10-16T19:24:54;13.43;;;7.53;;
75586;SDS011;64164;50.156;14.570;2022-10-16T19:27:19;11.63;;;6.50;;
75586;SDS011;64164;50.156;14.570;2022-10-16T19:29:45;13.80;;;6.40;;
75586;SDS011;64164;50.156;14.570;2022-10-16T19:32:10;14.02;;;5.95;;
75586;SDS011;64164;50.156;14.570;2022-10-16T19:34:35;9.87;;;5.67;;
75586;SDS011;64164;50.156;14.570;2022-10-16T19:37:01;9.98;;;5.53;;
75586;SDS011;64164;50.156;14.570;2022-10-16T19:39:26;11.00;;;5.77;;
75586;SDS011;64164;50.156;14.570;2022-10-16T19:41:52;9.82;;;5.30;;
75586;SDS011;64164;50.156;14.570;2022-10-16T19:44:17;8.88;;;5.22;;
75586;SDS011;64164;50.156;14.570;2022-10-16T19:46:43;10.18;;;5.60;;
75586;SDS011;64164;50.156;14.570;2022-10-16T19:49:10;10.43;;;5.50;;
75586;SDS011;64164;50.156;14.570;2022-10-16T19:51:37;10.27;;;5.47;;
75586;SDS011;64164;50.156;14.570;2022-10-16T19:54:05;9.82;;;5.47;;
75586;SDS011;64164;50.156;14.570;2022-10-16T19:56:32;9.60;;;5.03;;
75586;SDS011;64164;50.156;14.570;2022-10-16T19:58:59;11.32;;;5.53;;
75586;SDS011;64164;50.156;14.570;2022-10-16T20:01:25;13.18;;;6.35;;
75586;SDS011;64164;50.156;14.570;2022-10-16T20:03:53;11.75;;;6.38;;
75586;SDS011;64164;50.156;14.570;2022-10-16T20:06:18;11.70;;;6.50;;
75586;SDS011;64164;50.156;14.570;2022-10-16T20:08:45;14.75;;;8.15;;
75586;SDS011;64164;50.156;14.570;2022-10-16T20:11:16;16.23;;;8.93;;
75586;SDS011;64164;50.156;14.570;2022-10-16T20:13:44;11.95;;;6.82;;
75586;SDS011;64164;50.156;14.570;2022-10-16T20:16:10;14.10;;;7.20;;
75586;SDS011;64164;50.156;14.570;2022-10-16T20:18:37;15.48;;;7.75;;
75586;SDS011;64164;50.156;14.570;2022-10-16T20:21:14;12.15;;;6.75;;
75586;SDS011;64164;50.156;14.570;2022-10-16T20:23:41;15.15;;;7.13;;
75586;SDS011;64164;50.156;14.570;2022-10-16T20:26:07;15.30;;;6.97;;
75586;SDS011;64164;50.156;14.570;2022-10-16T20:28:35;11.85;;;6.60;;
75586;SDS011;64164;50.156;14.570;2022-10-16T20:31:06;11.43;;;6.35;;
75586;SDS011;64164;50.156;14.570;2022-10-16T20:33:33;14.93;;;6.80;;
75586;SDS011;64164;50.156;14.570;2022-10-16T20:35:59;20.50;;;7.45;;
75586;SDS011;64164;50.156;14.570;2022-10-16T20:38:24;13.88;;;7.60;;
75586;SDS011;64164;50.156;14.570;2022-10-16T20:40:50;13.30;;;7.63;;
75586;SDS011;64164;50.156;14.570;2022-10-16T20:43:16;15.18;;;6.55;;
75586;SDS011;64164;50.156;14.570;2022-10-16T20:45:43;14.27;;;6.50;;
75586;SDS011;64164;50.156;14.570;2022-10-16T20:50:35;12.60;;;6.93;;
75586;SDS011;64164;50.156;14.570;2022-10-16T20:53:03;13.65;;;7.25;;
75586;SDS011;64164;50.156;14.570;2022-10-16T20:55:29;12.73;;;7.03;;
75586;SDS011;64164;50.156;14.570;2022-10-16T20:57:54;13.05;;;7.20;;
75586;SDS011;64164;50.156;14.570;2022-10-16T21:00:20;13.82;;;6.75;;
75586;SDS011;64164;50.156;14.570;2022-10-16T21:02:49;15.73;;;7.97;;
75586;SDS011;64164;50.156;14.570;2022-10-16T21:05:16;17.48;;;9.35;;
75586;SDS011;64164;50.156;14.570;2022-10-16T21:07:42;14.95;;;7.70;;
75586;SDS011;64164;50.156;14.570;2022-10-16T21:10:07;12.83;;;7.80;;
75586;SDS011;64164;50.156;14.570;2022-10-16T21:12:33;21.17;;;11.82;;
75586;SDS011;64164;50.156;14.570;2022-10-16T21:14:58;20.55;;;11.35;;
75586;SDS011;64164;50.156;14.570;2022-10-16T21:17:24;20.80;;;11.40;;
75586;SDS011;64164;50.156;14.570;2022-10-16T21:19:49;21.10;;;11.10;;
75586;SDS011;64164;50.156;14.570;2022-10-16T21:22:14;20.93;;;10.23;;
75586;SDS011;64164;50.156;14.570;2022-10-16T21:24:40;16.65;;;9.50;;
75586;SDS011;64164;50.156;14.570;2022-10-16T21:27:06;18.60;;;9.37;;
75586;SDS011;64164;50.156;14.570;2022-10-16T21:29:31;17.30;;;8.73;;
75586;SDS011;64164;50.156;14.570;2022-10-16T21:31:57;18.48;;;9.57;;
75586;SDS011;64164;50.156;14.570;2022-10-16T21:34:22;17.52;;;8.45;;
75586;SDS011;64164;50.156;14.570;2022-10-16T21:36:48;16.17;;;7.53;;
75586;SDS011;64164;50.156;14.570;2022-10-16T21:39:14;18.02;;;7.72;;
75586;SDS011;64164;50.156;14.570;2022-10-16T21:41:43;17.13;;;8.30;;
75586;SDS011;64164;50.156;14.570;2022-10-16T21:44:10;16.10;;;8.48;;
75586;SDS011;64164;50.156;14.570;2022-10-16T21:46:37;15.50;;;7.97;;
75586;SDS011;64164;50.156;14.570;2022-10-16T21:49:04;15.85;;;8.10;;
75586;SDS011;64164;50.156;14.570;2022-10-16T21:51:32;16.48;;;8.85;;
75586;SDS011;64164;50.156;14.570;2022-10-16T21:54:04;17.17;;;9.85;;
75586;SDS011;64164;50.156;14.570;2022-10-16T21:56:31;21.33;;;9.15;;
75586;SDS011;64164;50.156;14.570;2022-10-16T21:58:56;17.45;;;8.57;;
75586;SDS011;64164;50.156;14.570;2022-10-16T22:01:23;20.35;;;9.50;;
75586;SDS011;64164;50.156;14.570;2022-10-16T22:03:49;19.65;;;10.23;;
75586;SDS011;64164;50.156;14.570;2022-10-16T22:06:16;20.88;;;10.48;;
75586;SDS011;64164;50.156;14.570;2022-10-16T22:08:44;23.20;;;11.27;;
75586;SDS011;64164;50.156;14.570;2022-10-16T22:11:12;21.88;;;9.68;;
75586;SDS011;64164;50.156;14.570;2022-10-16T22:13:39;22.52;;;10.45;;
75586;SDS011;64164;50.156;14.570;2022-10-16T22:16:05;22.08;;;11.80;;
75586;SDS011;64164;50.156;14.570;2022-10-16T22:18:31;25.00;;;11.70;;
75586;SDS011;64164;50.156;14.570;2022-10-16T22:20:57;22.70;;;11.98;;
75586;SDS011;64164;50.156;14.570;2022-10-16T22:23:22;26.67;;;11.60;;
75586;SDS011;64164;50.156;14.570;2022-10-16T22:25:48;21.52;;;10.50;;
75586;SDS011;64164;50.156;14.570;2022-10-16T22:28:14;21.05;;;10.98;;
75586;SDS011;64164;50.156;14.570;2022-10-16T22:30:42;21.30;;;10.65;;
75586;SDS011;64164;50.156;14.570;2022-10-16T22:33:07;23.90;;;10.70;;
75586;SDS011;64164;50.156;14.570;2022-10-16T22:35:36;22.23;;;11.30;;
75586;SDS011;64164;50.156;14.570;2022-10-16T22:38:03;22.77;;;10.90;;
75586;SDS011;64164;50.156;14.570;2022-10-16T22:40:32;19.00;;;10.32;;
75586;SDS011;64164;50.156;14.570;2022-10-16T22:42:57;23.08;;;11.27;;